sensor_id;sensor_type;location;lat;lon;timestamp;pressure;altitude;pressure_sealevel;temperature
48854;BMP280;34673;52.808;17.856;2024-03-02T00:00:40;99856.63;;;8.04
48854;BMP280;34673;52.808;17.856;2024-03-02T00:03:08;99850.63;;;8.00
48854;BMP280;34673;52.808;17.856;2024-03-02T00:05:37;99853.22;;;8.04
48854;BMP280;34673;52.808;17.856;2024-03-02T00:08:05;99852.34;;;8.02
48854;BMP280;34673;52.808;17.856;2024-03-02T00:10:38;99850.63;;;8.00
48854;BMP280;34673;52.808;17.856;2024-03-02T00:13:09;99845.47;;;8.00
48854;BMP280;34673;52.808;17.856;2024-03-02T00:15:53;99844.63;;;8.02
48854;BMP280;34673;52.808;17.856;2024-03-02T00:18:35;99844.63;;;8.00
48854;BMP280;34673;52.808;17.856;2024-03-02T00:21:03;99836.06;;;7.95
48854;BMP280;34673;52.808;17.856;2024-03-02T00:23:31;99836.94;;;7.98
48854;BMP280;34673;52.808;17.856;2024-03-02T00:25:59;99838.66;;;7.92
48854;BMP280;34673;52.808;17.856;2024-03-02T00:28:36;99843.81;;;7.96
48854;BMP280;34673;52.808;17.856;2024-03-02T00:31:04;99836.94;;;7.95
48854;BMP280;34673;52.808;17.856;2024-03-02T00:33:34;99824.94;;;7.91
48854;BMP280;34673;52.808;17.856;2024-03-02T00:36:05;99835.22;;;7.94
48854;BMP280;34673;52.808;17.856;2024-03-02T00:38:44;99832.66;;;7.96
48854;BMP280;34673;52.808;17.856;2024-03-02T00:41:27;99831.81;;;7.95
48854;BMP280;34673;52.808;17.856;2024-03-02T00:44:04;99830.09;;;7.93
48854;BMP280;34673;52.808;17.856;2024-03-02T00:46:40;99830.94;;;7.93
48854;BMP280;34673;52.808;17.856;2024-03-02T00:51:39;99822.38;;;7.91
48854;BMP280;34673;52.808;17.856;2024-03-02T00:54:08;99823.25;;;7.90
48854;BMP280;34673;52.808;17.856;2024-03-02T00:56:36;99819.78;;;7.91
48854;BMP280;34673;52.808;17.856;2024-03-02T00:59:04;99816.38;;;7.89
48854;BMP280;34673;52.808;17.856;2024-03-02T01:01:31;99804.38;;;7.85
48854;BMP280;34673;52.808;17.856;2024-03-02T01:03:59;99812.97;;;7.87
48854;BMP280;34673;52.808;17.856;2024-03-02T01:06:26;99804.38;;;7.85
48854;BMP280;34673;52.808;17.856;2024-03-02T01:08:53;99811.22;;;7.86
48854;BMP280;34673;52.808;17.856;2024-03-02T01:11:21;99806.91;;;7.93
48854;BMP280;34673;52.808;17.856;2024-03-02T01:13:51;99802.63;;;7.90
48854;BMP280;34673;52.808;17.856;2024-03-02T01:16:19;99807.81;;;7.87
48854;BMP280;34673;52.808;17.856;2024-03-02T01:18:47;99807.81;;;7.84
48854;BMP280;34673;52.808;17.856;2024-03-02T01:21:15;99809.53;;;7.85
48854;BMP280;34673;52.808;17.856;2024-03-02T01:23:42;99814.69;;;7.85
48854;BMP280;34673;52.808;17.856;2024-03-02T01:26:10;99815.53;;;7.86
48854;BMP280;34673;52.808;17.856;2024-03-02T01:28:38;99809.53;;;7.85
48854;BMP280;34673;52.808;17.856;2024-03-02T01:31:05;99807.81;;;7.81
48854;BMP280;34673;52.808;17.856;2024-03-02T01:33:32;99806.97;;;7.82
48854;BMP280;34673;52.808;17.856;2024-03-02T01:36:00;99799.25;;;7.82
48854;BMP280;34673;52.808;17.856;2024-03-02T01:38:27;99802.69;;;7.81
48854;BMP280;34673;52.808;17.856;2024-03-02T01:40:55;99800.97;;;7.80
48854;BMP280;34673;52.808;17.856;2024-03-02T01:43:24;99794.13;;;7.79
48854;BMP280;34673;52.808;17.856;2024-03-02T01:45:51;99806.16;;;7.77
48854;BMP280;34673;52.808;17.856;2024-03-02T01:48:18;99799.28;;;7.76
48854;BMP280;34673;52.808;17.856;2024-03-02T01:50:46;99786.44;;;7.71
48854;BMP280;34673;52.808;17.856;2024-03-02T01:53:14;99792.44;;;7.72
48854;BMP280;34673;52.808;17.856;2024-03-02T01:55:41;99775.31;;;7.66
48854;BMP280;34673;52.808;17.856;2024-03-02T01:58:08;99778.72;;;7.67
48854;BMP280;34673;52.808;17.856;2024-03-02T02:00:36;99786.47;;;7.64
48854;BMP280;34673;52.808;17.856;2024-03-02T02:03:04;99777.03;;;7.60
48854;BMP280;34673;52.808;17.856;2024-03-02T02:05:31;99782.22;;;7.63
48854;BMP280;34673;52.808;17.856;2024-03-02T02:07:58;99787.34;;;7.63
48854;BMP280;34673;52.808;17.856;2024-03-02T02:10:26;99788.22;;;7.63
48854;BMP280;34673;52.808;17.856;2024-03-02T02:12:53;99777.03;;;7.60
48854;BMP280;34673;52.808;17.856;2024-03-02T02:17:53;99787.34;;;7.60
48854;BMP280;34673;52.808;17.856;2024-03-02T02:20:21;99787.34;;;7.63
48854;BMP280;34673;52.808;17.856;2024-03-02T02:25:25;99789.06;;;7.64
48854;BMP280;34673;52.808;17.856;2024-03-02T02:27:53;99780.50;;;7.59
48854;BMP280;34673;52.808;17.856;2024-03-02T02:30:23;99782.19;;;7.60
48854;BMP280;34673;52.808;17.856;2024-03-02T02:32:51;99764.22;;;7.53
48854;BMP280;34673;52.808;17.856;2024-03-02T02:35:18;99769.34;;;7.58
48854;BMP280;34673;52.808;17.856;2024-03-02T02:37:46;99782.19;;;7.60
48854;BMP280;34673;52.808;17.856;2024-03-02T02:40:14;99765.06;;;7.55
48854;BMP280;34673;52.808;17.856;2024-03-02T02:42:42;99778.78;;;7.56
48854;BMP280;34673;52.808;17.856;2024-03-02T02:45:10;99771.94;;;7.53
48854;BMP280;34673;52.808;17.856;2024-03-02T02:47:41;99788.25;;;7.55
48854;BMP280;34673;52.808;17.856;2024-03-02T02:50:09;99780.53;;;7.52
48854;BMP280;34673;52.808;17.856;2024-03-02T02:52:39;99789.09;;;7.51
48854;BMP280;34673;52.808;17.856;2024-03-02T02:55:09;99794.25;;;7.51
48854;BMP280;34673;52.808;17.856;2024-03-02T02:57:38;99794.28;;;7.50
48854;BMP280;34673;52.808;17.856;2024-03-02T03:00:13;99792.53;;;7.50
48854;BMP280;34673;52.808;17.856;2024-03-02T03:02:46;99791.72;;;7.47
48854;BMP280;34673;52.808;17.856;2024-03-02T03:05:15;99784.00;;;7.45
48854;BMP280;34673;52.808;17.856;2024-03-02T03:07:43;99771.16;;;7.39
48854;BMP280;34673;52.808;17.856;2024-03-02T03:10:12;99787.47;;;7.41
48854;BMP280;34673;52.808;17.856;2024-03-02T03:12:41;99780.56;;;7.40
48854;BMP280;34673;52.808;17.856;2024-03-02T03:15:11;99780.59;;;7.37
48854;BMP280;34673;52.808;17.856;2024-03-02T03:17:38;99777.16;;;7.35
48854;BMP280;34673;52.808;17.856;2024-03-02T03:20:06;99775.47;;;7.31
48854;BMP280;34673;52.808;17.856;2024-03-02T03:22:37;99761.78;;;7.26
48854;BMP280;34673;52.808;17.856;2024-03-02T03:25:05;99772.94;;;7.25
48854;BMP280;34673;52.808;17.856;2024-03-02T03:27:32;99772.09;;;7.23
48854;BMP280;34673;52.808;17.856;2024-03-02T03:30:00;99761.81;;;7.20
48854;BMP280;34673;52.808;17.856;2024-03-02T03:32:27;99763.53;;;7.18
48854;BMP280;34673;52.808;17.856;2024-03-02T03:34:55;99751.53;;;7.17
48854;BMP280;34673;52.808;17.856;2024-03-02T03:37:22;99754.97;;;7.14
48854;BMP280;34673;52.808;17.856;2024-03-02T03:39:50;99754.09;;;7.15
48854;BMP280;34673;52.808;17.856;2024-03-02T03:42:18;99741.25;;;7.14
48854;BMP280;34673;52.808;17.856;2024-03-02T03:44:46;99736.97;;;7.09
48854;BMP280;34673;52.808;17.856;2024-03-02T03:47:13;99737.84;;;7.12
48854;BMP280;34673;52.808;17.856;2024-03-02T03:49:40;99748.13;;;7.12
48854;BMP280;34673;52.808;17.856;2024-03-02T03:52:08;99748.13;;;7.12
48854;BMP280;34673;52.808;17.856;2024-03-02T03:54:35;99729.28;;;7.09
48854;BMP280;34673;52.808;17.856;2024-03-02T03:57:04;99740.41;;;7.12
48854;BMP280;34673;52.808;17.856;2024-03-02T03:59:32;99752.41;;;7.13
48854;BMP280;34673;52.808;17.856;2024-03-02T04:01:59;99742.97;;;7.12
48854;BMP280;34673;52.808;17.856;2024-03-02T04:04:26;99737.84;;;7.08
48854;BMP280;34673;52.808;17.856;2024-03-02T04:06:53;99744.69;;;7.13
48854;BMP280;34673;52.808;17.856;2024-03-02T04:09:21;99749.81;;;7.13
48854;BMP280;34673;52.808;17.856;2024-03-02T04:11:49;99751.53;;;7.14
48854;BMP280;34673;52.808;17.856;2024-03-02T04:14:16;99750.69;;;7.12
48854;BMP280;34673;52.808;17.856;2024-03-02T04:16:43;99749.81;;;7.13
48854;BMP280;34673;52.808;17.856;2024-03-02T04:19:11;99745.56;;;7.12
48854;BMP280;34673;52.808;17.856;2024-03-02T04:21:39;99742.97;;;7.15
48854;BMP280;34673;52.808;17.856;2024-03-02T04:24:06;99742.97;;;7.15
48854;BMP280;34673;52.808;17.856;2024-03-02T04:26:33;99743.84;;;7.12
48854;BMP280;34673;52.808;17.856;2024-03-02T04:29:01;99749.81;;;7.16
48854;BMP280;34673;52.808;17.856;2024-03-02T04:31:29;99760.09;;;7.16
48854;BMP280;34673;52.808;17.856;2024-03-02T04:33:56;99760.09;;;7.19
48854;BMP280;34673;52.808;17.856;2024-03-02T04:36:23;99746.38;;;7.14
48854;BMP280;34673;52.808;17.856;2024-03-02T04:38:51;99756.69;;;7.17
48854;BMP280;34673;52.808;17.856;2024-03-02T04:41:19;99757.50;;;7.20
48854;BMP280;34673;52.808;17.856;2024-03-02T04:43:46;99760.94;;;7.22
48854;BMP280;34673;52.808;17.856;2024-03-02T04:46:13;99764.38;;;7.20
48854;BMP280;34673;52.808;17.856;2024-03-02T04:48:40;99770.38;;;7.19
48854;BMP280;34673;52.808;17.856;2024-03-02T04:51:09;99778.94;;;7.21
48854;BMP280;34673;52.808;17.856;2024-03-02T04:53:36;99765.22;;;7.22
48854;BMP280;34673;52.808;17.856;2024-03-02T04:56:04;99762.69;;;7.14
48854;BMP280;34673;52.808;17.856;2024-03-02T04:58:57;99770.41;;;7.17
48854;BMP280;34673;52.808;17.856;2024-03-02T05:01:24;99766.97;;;7.17
48854;BMP280;34673;52.808;17.856;2024-03-02T05:03:52;99769.53;;;7.17
48854;BMP280;34673;52.808;17.856;2024-03-02T05:06:19;99775.53;;;7.16
48854;BMP280;34673;52.808;17.856;2024-03-02T05:08:47;99772.09;;;7.14
48854;BMP280;34673;52.808;17.856;2024-03-02T05:11:15;99788.41;;;7.13
48854;BMP280;34673;52.808;17.856;2024-03-02T05:14:01;99780.69;;;7.13
48854;BMP280;34673;52.808;17.856;2024-03-02T05:16:28;99784.13;;;7.12
48854;BMP280;34673;52.808;17.856;2024-03-02T05:18:56;99787.53;;;7.14
48854;BMP280;34673;52.808;17.856;2024-03-02T05:21:23;99790.97;;;7.13
48854;BMP280;34673;52.808;17.856;2024-03-02T05:23:51;99799.56;;;7.12
48854;BMP280;34673;52.808;17.856;2024-03-02T05:26:18;99801.25;;;7.13
48854;BMP280;34673;52.808;17.856;2024-03-02T05:28:45;99797.81;;;7.14
48854;BMP280;34673;52.808;17.856;2024-03-02T05:31:15;99804.69;;;7.15
48854;BMP280;34673;52.808;17.856;2024-03-02T05:33:43;99801.25;;;7.13
48854;BMP280;34673;52.808;17.856;2024-03-02T05:36:11;99801.28;;;7.09
48854;BMP280;34673;52.808;17.856;2024-03-02T05:38:39;99806.44;;;7.09
48854;BMP280;34673;52.808;17.856;2024-03-02T05:41:07;99804.72;;;7.12
48854;BMP280;34673;52.808;17.856;2024-03-02T05:43:34;99807.28;;;7.12
48854;BMP280;34673;52.808;17.856;2024-03-02T05:46:01;99799.56;;;7.08
48854;BMP280;34673;52.808;17.856;2024-03-02T05:48:29;99808.13;;;7.12
48854;BMP280;34673;52.808;17.856;2024-03-02T05:50:56;99807.28;;;7.10
48854;BMP280;34673;52.808;17.856;2024-03-02T05:53:23;99806.44;;;7.09
48854;BMP280;34673;52.808;17.856;2024-03-02T05:55:51;99801.28;;;7.09
48854;BMP280;34673;52.808;17.856;2024-03-02T05:58:23;99806.44;;;7.09
48854;BMP280;34673;52.808;17.856;2024-03-02T06:01:09;99810.72;;;7.09
48854;BMP280;34673;52.808;17.856;2024-03-02T06:03:36;99815.84;;;7.09
48854;BMP280;34673;52.808;17.856;2024-03-02T06:06:04;99806.44;;;7.06
48854;BMP280;34673;52.808;17.856;2024-03-02T06:08:31;99810.69;;;7.14
48854;BMP280;34673;52.808;17.856;2024-03-02T06:10:59;99810.69;;;7.15
48854;BMP280;34673;52.808;17.856;2024-03-02T06:13:26;99809.81;;;7.18
48854;BMP280;34673;52.808;17.856;2024-03-02T06:15:54;99813.25;;;7.20
48854;BMP280;34673;52.808;17.856;2024-03-02T06:18:21;99815.84;;;7.17
48854;BMP280;34673;52.808;17.856;2024-03-02T06:20:49;99818.41;;;7.20
48854;BMP280;34673;52.808;17.856;2024-03-02T06:23:16;99829.53;;;7.23
48854;BMP280;34673;52.808;17.856;2024-03-02T06:25:44;99823.53;;;7.23
48854;BMP280;34673;52.808;17.856;2024-03-02T06:28:11;99825.22;;;7.24
48854;BMP280;34673;52.808;17.856;2024-03-02T06:30:38;99831.25;;;7.26
48854;BMP280;34673;52.808;17.856;2024-03-02T06:33:06;99833.78;;;7.29
48854;BMP280;34673;52.808;17.856;2024-03-02T06:35:33;99826.94;;;7.31
48854;BMP280;34673;52.808;17.856;2024-03-02T06:38:02;99822.66;;;7.31
48854;BMP280;34673;52.808;17.856;2024-03-02T06:40:29;99815.78;;;7.33
48854;BMP280;34673;52.808;17.856;2024-03-02T06:42:57;99822.63;;;7.35
48854;BMP280;34673;52.808;17.856;2024-03-02T06:45:24;99820.06;;;7.33
48854;BMP280;34673;52.808;17.856;2024-03-02T06:47:52;99813.16;;;7.38
48854;BMP280;34673;52.808;17.856;2024-03-02T06:50:19;99809.75;;;7.39
48854;BMP280;34673;52.808;17.856;2024-03-02T06:52:46;99807.19;;;7.38
48854;BMP280;34673;52.808;17.856;2024-03-02T06:55:14;99806.31;;;7.37
48854;BMP280;34673;52.808;17.856;2024-03-02T06:57:41;99820.88;;;7.47
48854;BMP280;34673;52.808;17.856;2024-03-02T07:00:09;99823.44;;;7.50
48854;BMP280;34673;52.808;17.856;2024-03-02T07:02:37;99801.16;;;7.49
48854;BMP280;34673;52.808;17.856;2024-03-02T07:05:04;99816.53;;;7.55
48854;BMP280;34673;52.808;17.856;2024-03-02T07:07:34;99826.81;;;7.57
48854;BMP280;34673;52.808;17.856;2024-03-02T07:10:05;99838.84;;;7.57
48854;BMP280;34673;52.808;17.856;2024-03-02T07:12:34;99844.84;;;7.55
48854;BMP280;34673;52.808;17.856;2024-03-02T07:15:03;99838.03;;;7.50
48854;BMP280;34673;52.808;17.856;2024-03-02T07:17:31;99838.84;;;7.53
48854;BMP280;34673;52.808;17.856;2024-03-02T07:19:58;99831.16;;;7.50
48854;BMP280;34673;52.808;17.856;2024-03-02T07:22:26;99827.69;;;7.51
48854;BMP280;34673;52.808;17.856;2024-03-02T07:24:54;99838.00;;;7.56
48854;BMP280;34673;52.808;17.856;2024-03-02T07:27:21;99833.69;;;7.57
48854;BMP280;34673;52.808;17.856;2024-03-02T07:29:49;99828.53;;;7.63
48854;BMP280;34673;52.808;17.856;2024-03-02T07:32:16;99840.53;;;7.67
48854;BMP280;34673;52.808;17.856;2024-03-02T07:34:43;99851.66;;;7.72
48854;BMP280;34673;52.808;17.856;2024-03-02T07:37:11;99855.94;;;7.73
48854;BMP280;34673;52.808;17.856;2024-03-02T07:39:38;99855.94;;;7.74
48854;BMP280;34673;52.808;17.856;2024-03-02T07:42:06;99859.34;;;7.78
48854;BMP280;34673;52.808;17.856;2024-03-02T07:44:33;99851.63;;;7.80
48854;BMP280;34673;52.808;17.856;2024-03-02T07:47:01;99855.88;;;7.88
48854;BMP280;34673;52.808;17.856;2024-03-02T07:49:28;99856.69;;;7.98
48854;BMP280;34673;52.808;17.856;2024-03-02T07:51:56;99862.63;;;8.05
48854;BMP280;34673;52.808;17.856;2024-03-02T07:54:23;99862.56;;;8.14
48854;BMP280;34673;52.808;17.856;2024-03-02T07:56:51;99870.28;;;8.20
48854;BMP280;34673;52.808;17.856;2024-03-02T07:59:18;99866.84;;;8.21
48854;BMP280;34673;52.808;17.856;2024-03-02T08:01:46;99872.78;;;8.29
48854;BMP280;34673;52.808;17.856;2024-03-02T08:04:13;99871.03;;;8.34
48854;BMP280;34673;52.808;17.856;2024-03-02T08:06:41;99870.16;;;8.37
48854;BMP280;34673;52.808;17.856;2024-03-02T08:09:08;99876.19;;;8.34
48854;BMP280;34673;52.808;17.856;2024-03-02T08:11:38;99869.31;;;8.36
48854;BMP280;34673;52.808;17.856;2024-03-02T08:14:06;99868.44;;;8.36
48854;BMP280;34673;52.808;17.856;2024-03-02T08:16:33;99876.19;;;8.37
48854;BMP280;34673;52.808;17.856;2024-03-02T08:19:01;99867.56;;;8.38
48854;BMP280;34673;52.808;17.856;2024-03-02T08:21:28;99874.47;;;8.41
48854;BMP280;34673;52.808;17.856;2024-03-02T08:23:58;99876.19;;;8.40
48854;BMP280;34673;52.808;17.856;2024-03-02T08:26:25;99877.88;;;8.45
48854;BMP280;34673;52.808;17.856;2024-03-02T08:28:56;99886.44;;;8.50
48854;BMP280;34673;52.808;17.856;2024-03-02T08:31:23;99879.50;;;8.58
48854;BMP280;34673;52.808;17.856;2024-03-02T08:33:50;99877.69;;;8.72
48854;BMP280;34673;52.808;17.856;2024-03-02T08:36:18;99869.00;;;8.82
48854;BMP280;34673;52.808;17.856;2024-03-02T08:38:49;99870.59;;;8.93
48854;BMP280;34673;52.808;17.856;2024-03-02T08:41:17;99883.41;;;9.05
48854;BMP280;34673;52.808;17.856;2024-03-02T08:43:44;99885.06;;;9.12
48854;BMP280;34673;52.808;17.856;2024-03-02T08:46:12;99886.72;;;9.18
48854;BMP280;34673;52.808;17.856;2024-03-02T08:48:39;99892.69;;;9.21
48854;BMP280;34673;52.808;17.856;2024-03-02T08:51:06;99882.38;;;9.21
48854;BMP280;34673;52.808;17.856;2024-03-02T08:53:37;99901.22;;;9.29
48854;BMP280;34673;52.808;17.856;2024-03-02T08:56:05;99884.00;;;9.31
48854;BMP280;34673;52.808;17.856;2024-03-02T08:58:33;99881.34;;;9.36
48854;BMP280;34673;52.808;17.856;2024-03-02T09:01:01;99886.53;;;9.35
48854;BMP280;34673;52.808;17.856;2024-03-02T09:03:29;99896.03;;;9.32
48854;BMP280;34673;52.808;17.856;2024-03-02T09:05:56;99896.88;;;9.35
48854;BMP280;34673;52.808;17.856;2024-03-02T09:08:24;99883.97;;;9.35
48854;BMP280;34673;52.808;17.856;2024-03-02T09:10:52;99885.59;;;9.45
48854;BMP280;34673;52.808;17.856;2024-03-02T09:13:20;99885.47;;;9.54
48854;BMP280;34673;52.808;17.856;2024-03-02T09:15:48;99893.06;;;9.68
48854;BMP280;34673;52.808;17.856;2024-03-02T09:18:15;99878.31;;;9.77
48854;BMP280;34673;52.808;17.856;2024-03-02T09:20:42;99882.47;;;9.89
48854;BMP280;34673;52.808;17.856;2024-03-02T09:23:10;99901.38;;;9.90
48854;BMP280;34673;52.808;17.856;2024-03-02T09:25:37;99899.66;;;9.90
48854;BMP280;34673;52.808;17.856;2024-03-02T09:28:05;99910.88;;;9.91
48854;BMP280;34673;52.808;17.856;2024-03-02T09:30:32;99903.03;;;9.95
48854;BMP280;34673;52.808;17.856;2024-03-02T09:33:00;99903.94;;;9.93
48854;BMP280;34673;52.808;17.856;2024-03-02T09:35:30;99891.84;;;9.95
48854;BMP280;34673;52.808;17.856;2024-03-02T09:37:58;99884.91;;;10.00
48854;BMP280;34673;52.808;17.856;2024-03-02T09:40:25;99885.66;;;10.08
48854;BMP280;34673;52.808;17.856;2024-03-02T09:42:54;99888.03;;;10.24
48854;BMP280;34673;52.808;17.856;2024-03-02T09:45:25;99892.94;;;10.42
48854;BMP280;34673;52.808;17.856;2024-03-02T09:47:54;99888.56;;;10.47
48854;BMP280;34673;52.808;17.856;2024-03-02T09:50:22;99891.88;;;10.55
48854;BMP280;34673;52.808;17.856;2024-03-02T09:52:49;99890.13;;;10.59
48854;BMP280;34673;52.808;17.856;2024-03-02T09:55:18;99884.00;;;10.64
48854;BMP280;34673;52.808;17.856;2024-03-02T09:57:46;99893.50;;;10.64
48854;BMP280;34673;52.808;17.856;2024-03-02T10:00:15;99895.25;;;10.62
48854;BMP280;34673;52.808;17.856;2024-03-02T10:02:43;99894.25;;;10.71
48854;BMP280;34673;52.808;17.856;2024-03-02T10:05:11;99893.34;;;10.73
48854;BMP280;34673;52.808;17.856;2024-03-02T10:07:39;99887.31;;;10.73
48854;BMP280;34673;52.808;17.856;2024-03-02T10:10:14;99889.06;;;10.71
48854;BMP280;34673;52.808;17.856;2024-03-02T10:12:41;99880.38;;;10.75
48854;BMP280;34673;52.808;17.856;2024-03-02T10:15:09;99878.44;;;10.87
48854;BMP280;34673;52.808;17.856;2024-03-02T10:17:38;99883.31;;;11.04
48854;BMP280;34673;52.808;17.856;2024-03-02T10:20:22;99874.38;;;11.21
48854;BMP280;34673;52.808;17.856;2024-03-02T10:22:50;99865.50;;;11.34
48854;BMP280;34673;52.808;17.856;2024-03-02T10:25:31;99867.06;;;11.44
48854;BMP280;34673;52.808;17.856;2024-03-02T10:28:16;99868.59;;;11.54
48854;BMP280;34673;52.808;17.856;2024-03-02T10:30:48;99865.03;;;11.59
48854;BMP280;34673;52.808;17.856;2024-03-02T10:33:20;99862.56;;;11.54
48854;BMP280;34673;52.808;17.856;2024-03-02T10:35:49;99852.09;;;11.59
48854;BMP280;34673;52.808;17.856;2024-03-02T10:38:17;99864.94;;;11.65
48854;BMP280;34673;52.808;17.856;2024-03-02T10:40:48;99870.88;;;11.70
48854;BMP280;34673;52.808;17.856;2024-03-02T10:43:17;99875.94;;;11.74
48854;BMP280;34673;52.808;17.856;2024-03-02T10:45:47;99866.56;;;11.69
48854;BMP280;34673;52.808;17.856;2024-03-02T10:48:16;99870.91;;;11.67
48854;BMP280;34673;52.808;17.856;2024-03-02T10:50:44;99881.38;;;11.62
48854;BMP280;34673;52.808;17.856;2024-03-02T10:53:12;99877.00;;;11.66
48854;BMP280;34673;52.808;17.856;2024-03-02T10:55:39;99883.00;;;11.68
48854;BMP280;34673;52.808;17.856;2024-03-02T10:58:10;99870.97;;;11.65
48854;BMP280;34673;52.808;17.856;2024-03-02T11:00:40;99870.06;;;11.68
48854;BMP280;34673;52.808;17.856;2024-03-02T11:03:09;99873.47;;;11.68
48854;BMP280;34673;52.808;17.856;2024-03-02T11:05:44;99864.59;;;11.80
48854;BMP280;34673;52.808;17.856;2024-03-02T11:08:13;99864.53;;;11.86
48854;BMP280;34673;52.808;17.856;2024-03-02T11:10:50;99867.81;;;11.94
48854;BMP280;34673;52.808;17.856;2024-03-02T11:13:34;99864.31;;;11.95
48854;BMP280;34673;52.808;17.856;2024-03-02T11:16:37;99860.91;;;11.93
48854;BMP280;34673;52.808;17.856;2024-03-02T11:19:10;99867.94;;;11.85
48854;BMP280;34673;52.808;17.856;2024-03-02T11:21:42;99854.38;;;11.74
48854;BMP280;34673;52.808;17.856;2024-03-02T11:26:54;99862.91;;;11.79
48854;BMP280;34673;52.808;17.856;2024-03-02T11:32:20;99855.72;;;11.93
48854;BMP280;34673;52.808;17.856;2024-03-02T11:34:49;99864.25;;;11.98
48854;BMP280;34673;52.808;17.856;2024-03-02T11:37:18;99864.09;;;12.05
48854;BMP280;34673;52.808;17.856;2024-03-02T11:39:50;99865.81;;;12.06
48854;BMP280;34673;52.808;17.856;2024-03-02T11:42:18;99862.34;;;12.07
48854;BMP280;34673;52.808;17.856;2024-03-02T11:44:47;99865.03;;;12.02
48854;BMP280;34673;52.808;17.856;2024-03-02T11:47:16;99862.34;;;12.07
48854;BMP280;34673;52.808;17.856;2024-03-02T11:49:48;99862.34;;;12.07
48854;BMP280;34673;52.808;17.856;2024-03-02T11:52:17;99857.91;;;12.12
48854;BMP280;34673;52.808;17.856;2024-03-02T11:54:46;99862.00;;;12.22
48854;BMP280;34673;52.808;17.856;2024-03-02T11:57:21;99848.97;;;12.25
48854;BMP280;34673;52.808;17.856;2024-03-02T11:59:50;99848.13;;;12.23
48854;BMP280;34673;52.808;17.856;2024-03-02T12:02:19;99849.97;;;12.18
48854;BMP280;34673;52.808;17.856;2024-03-02T12:04:48;99851.97;;;12.07
48854;BMP280;34673;52.808;17.856;2024-03-02T12:07:23;99848.75;;;11.95
48854;BMP280;34673;52.808;17.856;2024-03-02T12:10:00;99848.69;;;11.98
48854;BMP280;34673;52.808;17.856;2024-03-02T12:12:32;99850.38;;;12.01
48854;BMP280;34673;52.808;17.856;2024-03-02T12:15:00;99851.88;;;12.10
48854;BMP280;34673;52.808;17.856;2024-03-02T12:17:29;99847.69;;;12.06
48854;BMP280;34673;52.808;17.856;2024-03-02T12:19:56;99854.66;;;12.02
48854;BMP280;34673;52.808;17.856;2024-03-02T12:22:23;99860.81;;;11.96
48854;BMP280;34673;52.808;17.856;2024-03-02T12:24:51;99857.47;;;11.91
48854;BMP280;34673;52.808;17.856;2024-03-02T12:27:19;99839.50;;;11.84
48854;BMP280;34673;52.808;17.856;2024-03-02T12:29:48;99855.97;;;11.81
48854;BMP280;34673;52.808;17.856;2024-03-02T12:32:16;99848.13;;;11.83
48854;BMP280;34673;52.808;17.856;2024-03-02T12:34:46;99848.97;;;11.83
48854;BMP280;34673;52.808;17.856;2024-03-02T12:37:14;99842.09;;;11.82
48854;BMP280;34673;52.808;17.856;2024-03-02T12:39:45;99838.69;;;11.80
48854;BMP280;34673;52.808;17.856;2024-03-02T12:42:13;99840.34;;;11.84
48854;BMP280;34673;52.808;17.856;2024-03-02T12:44:40;99835.16;;;11.84
48854;BMP280;34673;52.808;17.856;2024-03-02T12:47:08;99843.78;;;11.86
48854;BMP280;34673;52.808;17.856;2024-03-02T12:49:36;99835.03;;;11.90
48854;BMP280;34673;52.808;17.856;2024-03-02T12:52:04;99837.53;;;11.95
48854;BMP280;34673;52.808;17.856;2024-03-02T12:54:32;99841.84;;;11.96
48854;BMP280;34673;52.808;17.856;2024-03-02T12:57:00;99838.41;;;11.95
48854;BMP280;34673;52.808;17.856;2024-03-02T12:59:29;99834.13;;;11.93
48854;BMP280;34673;52.808;17.856;2024-03-02T13:01:56;99822.09;;;11.90
48854;BMP280;34673;52.808;17.856;2024-03-02T13:04:29;99828.03;;;11.95
48854;BMP280;34673;52.808;17.856;2024-03-02T13:06:57;99840.09;;;11.96
48854;BMP280;34673;52.808;17.856;2024-03-02T13:09:25;99830.44;;;12.03
48854;BMP280;34673;52.808;17.856;2024-03-02T13:11:54;99840.75;;;12.06
48854;BMP280;34673;52.808;17.856;2024-03-02T13:14:24;99838.09;;;12.08
48854;BMP280;34673;52.808;17.856;2024-03-02T13:16:53;99829.47;;;12.09
48854;BMP280;34673;52.808;17.856;2024-03-02T13:19:20;99836.34;;;12.10
48854;BMP280;34673;52.808;17.856;2024-03-02T13:21:48;99830.41;;;12.05
48854;BMP280;34673;52.808;17.856;2024-03-02T13:24:15;99819.41;;;11.93
48854;BMP280;34673;52.808;17.856;2024-03-02T13:26:43;99826.19;;;12.01
48854;BMP280;34673;52.808;17.856;2024-03-02T13:29:10;99828.81;;;11.99
48854;BMP280;34673;52.808;17.856;2024-03-02T13:31:37;99830.41;;;12.05
48854;BMP280;34673;52.808;17.856;2024-03-02T13:34:05;99838.09;;;12.08
48854;BMP280;34673;52.808;17.856;2024-03-02T13:36:32;99841.53;;;12.10
48854;BMP280;34673;52.808;17.856;2024-03-02T13:39:00;99835.50;;;12.08
48854;BMP280;34673;52.808;17.856;2024-03-02T13:41:27;99842.50;;;12.06
48854;BMP280;34673;52.808;17.856;2024-03-02T13:43:55;99840.81;;;12.03
48854;BMP280;34673;52.808;17.856;2024-03-02T13:46:23;99843.44;;;12.02
48854;BMP280;34673;52.808;17.856;2024-03-02T13:48:50;99839.97;;;12.03
48854;BMP280;34673;52.808;17.856;2024-03-02T13:51:23;99826.34;;;11.94
48854;BMP280;34673;52.808;17.856;2024-03-02T13:53:52;99835.66;;;12.02
48854;BMP280;34673;52.808;17.856;2024-03-02T13:56:19;99841.75;;;12.01
48854;BMP280;34673;52.808;17.856;2024-03-02T13:58:47;99833.22;;;11.95
48854;BMP280;34673;52.808;17.856;2024-03-02T14:01:14;99837.63;;;11.92
48854;BMP280;34673;52.808;17.856;2024-03-02T14:03:42;99833.34;;;11.89
48854;BMP280;34673;52.808;17.856;2024-03-02T14:06:09;99836.91;;;11.82
48854;BMP280;34673;52.808;17.856;2024-03-02T14:08:37;99835.28;;;11.78
48854;BMP280;34673;52.808;17.856;2024-03-02T14:11:04;99830.28;;;11.69
48854;BMP280;34673;52.808;17.856;2024-03-02T14:13:32;99841.69;;;11.62
48854;BMP280;34673;52.808;17.856;2024-03-02T14:15:59;99835.03;;;11.48
48854;BMP280;34673;52.808;17.856;2024-03-02T14:18:26;99846.28;;;11.47
48854;BMP280;34673;52.808;17.856;2024-03-02T14:20:54;99841.16;;;11.44
48854;BMP280;34673;52.808;17.856;2024-03-02T14:23:23;99840.38;;;11.39
48854;BMP280;34673;52.808;17.856;2024-03-02T14:25:50;99841.28;;;11.38